sensor_id;sensor_type;location;lat;lon;timestamp;P1;durP1;ratioP1;P2;durP2;ratioP2
64609;SDS011;51019;46.090;6.350;2023-04-19T00:00:56;16.70;;;5.30;;
64609;SDS011;51019;46.090;6.350;2023-04-19T00:03:27;15.45;;;5.60;;
64609;SDS011;51019;46.090;6.350;2023-04-19T00:05:55;14.02;;;5.55;;
64609;SDS011;51019;46.090;6.350;2023-04-19T00:08:24;14.02;;;5.25;;
64609;SDS011;51019;46.090;6.350;2023-04-19T00:10:52;13.00;;;5.38;;
64609;SDS011;51019;46.090;6.350;2023-04-19T00:13:20;14.25;;;5.90;;
64609;SDS011;51019;46.090;6.350;2023-04-19T00:15:47;14.27;;;5.18;;
64609;SDS011;51019;46.090;6.350;2023-04-19T00:18:15;17.05;;;6.03;;
64609;SDS011;51019;46.090;6.350;2023-04-19T00:20:48;15.90;;;5.97;;
64609;SDS011;51019;46.090;6.350;2023-04-19T00:23:18;15.90;;;5.90;;
64609;SDS011;51019;46.090;6.350;2023-04-19T00:25:49;13.85;;;5.25;;
64609;SDS011;51019;46.090;6.350;2023-04-19T00:28:17;13.95;;;5.40;;
64609;SDS011;51019;46.090;6.350;2023-04-19T00:30:44;14.90;;;5.68;;
64609;SDS011;51019;46.090;6.350;2023-04-19T00:33:12;13.13;;;5.32;;
64609;SDS011;51019;46.090;6.350;2023-04-19T00:35:40;13.95;;;5.10;;
64609;SDS011;51019;46.090;6.350;2023-04-19T00:38:10;14.13;;;5.93;;
64609;SDS011;51019;46.090;6.350;2023-04-19T00:40:37;16.38;;;5.32;;
64609;SDS011;51019;46.090;6.350;2023-04-19T00:43:05;15.27;;;5.90;;
64609;SDS011;51019;46.090;6.350;2023-04-19T00:45:33;13.82;;;5.10;;
64609;SDS011;51019;46.090;6.350;2023-04-19T00:48:02;13.63;;;4.93;;
64609;SDS011;51019;46.090;6.350;2023-04-19T00:50:30;14.95;;;5.80;;
64609;SDS011;51019;46.090;6.350;2023-04-19T00:52:59;14.88;;;5.90;;
64609;SDS011;51019;46.090;6.350;2023-04-19T00:55:28;14.25;;;6.10;;
64609;SDS011;51019;46.090;6.350;2023-04-19T00:57:56;15.07;;;5.93;;
64609;SDS011;51019;46.090;6.350;2023-04-19T01:00:23;16.45;;;5.72;;
64609;SDS011;51019;46.090;6.350;2023-04-19T01:02:51;16.27;;;5.93;;
64609;SDS011;51019;46.090;6.350;2023-04-19T01:05:19;15.10;;;5.78;;
64609;SDS011;51019;46.090;6.350;2023-04-19T01:07:48;14.60;;;5.80;;
64609;SDS011;51019;46.090;6.350;2023-04-19T01:10:15;18.13;;;6.53;;
64609;SDS011;51019;46.090;6.350;2023-04-19T01:12:45;17.23;;;6.30;;
64609;SDS011;51019;46.090;6.350;2023-04-19T01:15:13;15.65;;;5.75;;
64609;SDS011;51019;46.090;6.350;2023-04-19T01:17:41;16.90;;;5.55;;
64609;SDS011;51019;46.090;6.350;2023-04-19T01:20:09;14.63;;;5.40;;
64609;SDS011;51019;46.090;6.350;2023-04-19T01:22:39;13.88;;;5.25;;
64609;SDS011;51019;46.090;6.350;2023-04-19T01:25:07;14.50;;;5.80;;
64609;SDS011;51019;46.090;6.350;2023-04-19T01:27:35;16.60;;;6.55;;
64609;SDS011;51019;46.090;6.350;2023-04-19T01:30:03;15.80;;;7.45;;
64609;SDS011;51019;46.090;6.350;2023-04-19T01:32:34;14.77;;;5.47;;
64609;SDS011;51019;46.090;6.350;2023-04-19T01:35:02;13.52;;;4.50;;
64609;SDS011;51019;46.090;6.350;2023-04-19T01:37:30;14.60;;;5.30;;
64609;SDS011;51019;46.090;6.350;2023-04-19T01:40:02;17.48;;;5.93;;
64609;SDS011;51019;46.090;6.350;2023-04-19T01:42:31;15.30;;;5.70;;
64609;SDS011;51019;46.090;6.350;2023-04-19T01:45:00;14.32;;;5.50;;
64609;SDS011;51019;46.090;6.350;2023-04-19T01:47:28;17.17;;;5.68;;
64609;SDS011;51019;46.090;6.350;2023-04-19T01:49:55;14.68;;;5.68;;
64609;SDS011;51019;46.090;6.350;2023-04-19T01:52:23;17.02;;;6.57;;
64609;SDS011;51019;46.090;6.350;2023-04-19T01:54:50;14.10;;;5.63;;
64609;SDS011;51019;46.090;6.350;2023-04-19T01:57:23;14.40;;;5.60;;
64609;SDS011;51019;46.090;6.350;2023-04-19T01:59:51;14.93;;;6.10;;
64609;SDS011;51019;46.090;6.350;2023-04-19T02:02:19;16.00;;;7.13;;
64609;SDS011;51019;46.090;6.350;2023-04-19T02:04:47;17.90;;;5.78;;
64609;SDS011;51019;46.090;6.350;2023-04-19T02:07:14;14.00;;;5.50;;
64609;SDS011;51019;46.090;6.350;2023-04-19T02:09:42;16.02;;;5.68;;
64609;SDS011;51019;46.090;6.350;2023-04-19T02:12:10;13.23;;;5.32;;
64609;SDS011;51019;46.090;6.350;2023-04-19T02:14:39;17.67;;;5.55;;
64609;SDS011;51019;46.090;6.350;2023-04-19T02:17:07;14.80;;;5.75;;
64609;SDS011;51019;46.090;6.350;2023-04-19T02:19:36;17.38;;;6.30;;
64609;SDS011;51019;46.090;6.350;2023-04-19T02:22:04;14.73;;;5.63;;
64609;SDS011;51019;46.090;6.350;2023-04-19T02:24:31;14.73;;;5.95;;
64609;SDS011;51019;46.090;6.350;2023-04-19T02:26:59;14.75;;;5.72;;
64609;SDS011;51019;46.090;6.350;2023-04-19T02:29:27;14.98;;;6.03;;
64609;SDS011;51019;46.090;6.350;2023-04-19T02:31:56;17.33;;;5.85;;
64609;SDS011;51019;46.090;6.350;2023-04-19T02:34:24;14.70;;;6.13;;
64609;SDS011;51019;46.090;6.350;2023-04-19T02:36:53;16.45;;;6.75;;
64609;SDS011;51019;46.090;6.350;2023-04-19T02:39:20;17.67;;;6.47;;
64609;SDS011;51019;46.090;6.350;2023-04-19T02:41:47;19.67;;;7.03;;
64609;SDS011;51019;46.090;6.350;2023-04-19T02:44:15;17.85;;;6.82;;
64609;SDS011;51019;46.090;6.350;2023-04-19T02:46:46;14.95;;;6.10;;
64609;SDS011;51019;46.090;6.350;2023-04-19T02:49:16;16.00;;;6.45;;
64609;SDS011;51019;46.090;6.350;2023-04-19T02:51:44;16.02;;;7.05;;
64609;SDS011;51019;46.090;6.350;2023-04-19T02:54:12;16.48;;;6.88;;
64609;SDS011;51019;46.090;6.350;2023-04-19T02:56:39;17.60;;;6.65;;
64609;SDS011;51019;46.090;6.350;2023-04-19T02:59:07;16.02;;;5.97;;
64609;SDS011;51019;46.090;6.350;2023-04-19T03:01:35;16.05;;;6.75;;
64609;SDS011;51019;46.090;6.350;2023-04-19T03:04:02;15.05;;;6.13;;
64609;SDS011;51019;46.090;6.350;2023-04-19T03:06:32;15.77;;;6.50;;
64609;SDS011;51019;46.090;6.350;2023-04-19T03:08:59;16.45;;;7.25;;
64609;SDS011;51019;46.090;6.350;2023-04-19T03:11:27;15.30;;;6.28;;
64609;SDS011;51019;46.090;6.350;2023-04-19T03:13:55;15.90;;;6.50;;
64609;SDS011;51019;46.090;6.350;2023-04-19T03:16:22;14.90;;;6.40;;
64609;SDS011;51019;46.090;6.350;2023-04-19T03:18:50;15.13;;;5.95;;
64609;SDS011;51019;46.090;6.350;2023-04-19T03:21:20;15.40;;;5.82;;
64609;SDS011;51019;46.090;6.350;2023-04-19T03:23:53;15.27;;;5.68;;
64609;SDS011;51019;46.090;6.350;2023-04-19T03:26:21;14.15;;;5.78;;
64609;SDS011;51019;46.090;6.350;2023-04-19T03:28:48;15.07;;;6.20;;
64609;SDS011;51019;46.090;6.350;2023-04-19T03:31:16;15.13;;;5.75;;
64609;SDS011;51019;46.090;6.350;2023-04-19T03:33:44;15.00;;;6.07;;
64609;SDS011;51019;46.090;6.350;2023-04-19T03:36:12;16.98;;;5.90;;
64609;SDS011;51019;46.090;6.350;2023-04-19T03:38:39;16.95;;;6.82;;
64609;SDS011;51019;46.090;6.350;2023-04-19T03:41:19;17.20;;;6.60;;
64609;SDS011;51019;46.090;6.350;2023-04-19T03:43:47;15.85;;;6.88;;
64609;SDS011;51019;46.090;6.350;2023-04-19T03:46:21;16.70;;;6.32;;
64609;SDS011;51019;46.090;6.350;2023-04-19T03:48:48;15.40;;;6.07;;
64609;SDS011;51019;46.090;6.350;2023-04-19T03:51:16;15.45;;;6.25;;
64609;SDS011;51019;46.090;6.350;2023-04-19T03:53:44;16.42;;;6.50;;
64609;SDS011;51019;46.090;6.350;2023-04-19T03:56:12;14.48;;;5.85;;
64609;SDS011;51019;46.090;6.350;2023-04-19T03:58:41;17.40;;;6.55;;
64609;SDS011;51019;46.090;6.350;2023-04-19T04:01:16;19.98;;;7.30;;
64609;SDS011;51019;46.090;6.350;2023-04-19T04:03:44;16.92;;;7.40;;
64609;SDS011;51019;46.090;6.350;2023-04-19T04:06:11;17.13;;;6.45;;
64609;SDS011;51019;46.090;6.350;2023-04-19T04:08:39;15.05;;;6.63;;
64609;SDS011;51019;46.090;6.350;2023-04-19T04:11:07;17.48;;;7.43;;
64609;SDS011;51019;46.090;6.350;2023-04-19T04:13:35;18.10;;;6.90;;
64609;SDS011;51019;46.090;6.350;2023-04-19T04:16:05;18.85;;;7.20;;
64609;SDS011;51019;46.090;6.350;2023-04-19T04:18:33;19.77;;;6.70;;
64609;SDS011;51019;46.090;6.350;2023-04-19T04:21:00;19.58;;;7.15;;
64609;SDS011;51019;46.090;6.350;2023-04-19T04:23:28;19.50;;;7.40;;
64609;SDS011;51019;46.090;6.350;2023-04-19T04:25:56;14.82;;;5.63;;
64609;SDS011;51019;46.090;6.350;2023-04-19T04:28:29;21.08;;;6.00;;
64609;SDS011;51019;46.090;6.350;2023-04-19T04:30:57;17.77;;;6.80;;
64609;SDS011;51019;46.090;6.350;2023-04-19T04:33:27;16.73;;;6.47;;
64609;SDS011;51019;46.090;6.350;2023-04-19T04:35:55;16.08;;;6.10;;
64609;SDS011;51019;46.090;6.350;2023-04-19T04:38:23;16.85;;;6.28;;
64609;SDS011;51019;46.090;6.350;2023-04-19T04:40:52;16.70;;;6.40;;
64609;SDS011;51019;46.090;6.350;2023-04-19T04:43:20;19.67;;;6.63;;
64609;SDS011;51019;46.090;6.350;2023-04-19T04:45:48;18.08;;;7.05;;
64609;SDS011;51019;46.090;6.350;2023-04-19T04:48:16;16.75;;;6.93;;
64609;SDS011;51019;46.090;6.350;2023-04-19T04:50:49;17.05;;;7.05;;
64609;SDS011;51019;46.090;6.350;2023-04-19T04:53:16;22.13;;;7.47;;
64609;SDS011;51019;46.090;6.350;2023-04-19T04:55:44;18.65;;;6.55;;
64609;SDS011;51019;46.090;6.350;2023-04-19T04:58:11;20.40;;;7.18;;
64609;SDS011;51019;46.090;6.350;2023-04-19T05:00:39;21.65;;;6.80;;
64609;SDS011;51019;46.090;6.350;2023-04-19T05:03:07;17.58;;;6.40;;
64609;SDS011;51019;46.090;6.350;2023-04-19T05:05:35;15.85;;;6.88;;
64609;SDS011;51019;46.090;6.350;2023-04-19T05:08:04;17.02;;;5.53;;
64609;SDS011;51019;46.090;6.350;2023-04-19T05:10:32;18.90;;;7.22;;
64609;SDS011;51019;46.090;6.350;2023-04-19T05:13:00;18.25;;;5.88;;
64609;SDS011;51019;46.090;6.350;2023-04-19T05:15:28;16.05;;;7.00;;
64609;SDS011;51019;46.090;6.350;2023-04-19T05:17:55;15.55;;;6.00;;
64609;SDS011;51019;46.090;6.350;2023-04-19T05:20:22;16.45;;;6.78;;
64609;SDS011;51019;46.090;6.350;2023-04-19T05:22:55;17.20;;;6.47;;
64609;SDS011;51019;46.090;6.350;2023-04-19T05:25:24;16.27;;;6.22;;
64609;SDS011;51019;46.090;6.350;2023-04-19T05:27:53;16.45;;;6.45;;
64609;SDS011;51019;46.090;6.350;2023-04-19T05:30:22;18.15;;;6.55;;
64609;SDS011;51019;46.090;6.350;2023-04-19T05:32:49;18.17;;;6.65;;
64609;SDS011;51019;46.090;6.350;2023-04-19T05:35:17;17.67;;;7.28;;
64609;SDS011;51019;46.090;6.350;2023-04-19T05:37:44;19.13;;;9.80;;
64609;SDS011;51019;46.090;6.350;2023-04-19T05:40:12;20.15;;;8.55;;
64609;SDS011;51019;46.090;6.350;2023-04-19T05:42:42;20.42;;;8.55;;
64609;SDS011;51019;46.090;6.350;2023-04-19T05:45:10;17.73;;;7.13;;
64609;SDS011;51019;46.090;6.350;2023-04-19T05:47:39;18.88;;;7.88;;
64609;SDS011;51019;46.090;6.350;2023-04-19T05:50:07;16.13;;;7.25;;
64609;SDS011;51019;46.090;6.350;2023-04-19T05:52:35;17.98;;;6.93;;
64609;SDS011;51019;46.090;6.350;2023-04-19T05:55:02;16.65;;;7.00;;
64609;SDS011;51019;46.090;6.350;2023-04-19T05:57:30;22.90;;;8.07;;
64609;SDS011;51019;46.090;6.350;2023-04-19T06:00:01;17.80;;;7.05;;
64609;SDS011;51019;46.090;6.350;2023-04-19T06:02:29;18.17;;;8.10;;
64609;SDS011;51019;46.090;6.350;2023-04-19T06:04:56;21.10;;;8.60;;
64609;SDS011;51019;46.090;6.350;2023-04-19T06:07:24;19.80;;;8.45;;
64609;SDS011;51019;46.090;6.350;2023-04-19T06:09:51;22.45;;;9.18;;
64609;SDS011;51019;46.090;6.350;2023-04-19T06:12:19;21.75;;;9.23;;
64609;SDS011;51019;46.090;6.350;2023-04-19T06:14:46;19.88;;;9.70;;
64609;SDS011;51019;46.090;6.350;2023-04-19T06:17:16;21.25;;;9.32;;
64609;SDS011;51019;46.090;6.350;2023-04-19T06:19:47;21.30;;;9.00;;
64609;SDS011;51019;46.090;6.350;2023-04-19T06:22:15;22.33;;;8.93;;
64609;SDS011;51019;46.090;6.350;2023-04-19T06:24:43;19.67;;;9.23;;
64609;SDS011;51019;46.090;6.350;2023-04-19T06:27:10;17.65;;;8.43;;
64609;SDS011;51019;46.090;6.350;2023-04-19T06:29:38;18.27;;;7.38;;
64609;SDS011;51019;46.090;6.350;2023-04-19T06:32:05;19.15;;;8.40;;
64609;SDS011;51019;46.090;6.350;2023-04-19T06:34:36;20.77;;;7.97;;
64609;SDS011;51019;46.090;6.350;2023-04-19T06:37:04;17.95;;;7.68;;
64609;SDS011;51019;46.090;6.350;2023-04-19T06:39:32;18.33;;;7.47;;
64609;SDS011;51019;46.090;6.350;2023-04-19T06:41:59;24.15;;;8.70;;
64609;SDS011;51019;46.090;6.350;2023-04-19T06:44:28;26.23;;;8.25;;
64609;SDS011;51019;46.090;6.350;2023-04-19T06:46:55;19.17;;;7.60;;
64609;SDS011;51019;46.090;6.350;2023-04-19T06:49:23;18.75;;;7.97;;
64609;SDS011;51019;46.090;6.350;2023-04-19T06:51:52;20.83;;;8.63;;
64609;SDS011;51019;46.090;6.350;2023-04-19T06:54:20;19.27;;;7.38;;
64609;SDS011;51019;46.090;6.350;2023-04-19T06:56:48;17.02;;;7.30;;
64609;SDS011;51019;46.090;6.350;2023-04-19T06:59:16;19.17;;;7.22;;
64609;SDS011;51019;46.090;6.350;2023-04-19T07:01:46;15.93;;;6.55;;
64609;SDS011;51019;46.090;6.350;2023-04-19T07:04:13;21.65;;;7.18;;
64609;SDS011;51019;46.090;6.350;2023-04-19T07:06:41;18.30;;;7.80;;
64609;SDS011;51019;46.090;6.350;2023-04-19T07:09:11;16.95;;;6.95;;
64609;SDS011;51019;46.090;6.350;2023-04-19T07:11:38;16.65;;;7.03;;
64609;SDS011;51019;46.090;6.350;2023-04-19T07:14:05;17.85;;;7.32;;
64609;SDS011;51019;46.090;6.350;2023-04-19T07:16:33;19.40;;;7.28;;
64609;SDS011;51019;46.090;6.350;2023-04-19T07:19:01;18.63;;;7.25;;
64609;SDS011;51019;46.090;6.350;2023-04-19T07:21:28;17.38;;;7.70;;
64609;SDS011;51019;46.090;6.350;2023-04-19T07:23:57;21.40;;;7.93;;
64609;SDS011;51019;46.090;6.350;2023-04-19T07:26:27;18.80;;;7.53;;
64609;SDS011;51019;46.090;6.350;2023-04-19T07:28:54;19.45;;;8.23;;
64609;SDS011;51019;46.090;6.350;2023-04-19T07:31:22;18.73;;;8.35;;
64609;SDS011;51019;46.090;6.350;2023-04-19T07:33:50;20.27;;;9.77;;
64609;SDS011;51019;46.090;6.350;2023-04-19T07:36:18;18.65;;;8.15;;
64609;SDS011;51019;46.090;6.350;2023-04-19T07:38:45;17.80;;;8.60;;
64609;SDS011;51019;46.090;6.350;2023-04-19T07:41:13;20.10;;;8.50;;
64609;SDS011;51019;46.090;6.350;2023-04-19T07:43:42;17.05;;;8.40;;
64609;SDS011;51019;46.090;6.350;2023-04-19T07:46:10;20.67;;;8.85;;
64609;SDS011;51019;46.090;6.350;2023-04-19T07:48:38;18.30;;;8.52;;
64609;SDS011;51019;46.090;6.350;2023-04-19T07:51:09;19.38;;;9.40;;
64609;SDS011;51019;46.090;6.350;2023-04-19T07:53:37;18.85;;;8.32;;
64609;SDS011;51019;46.090;6.350;2023-04-19T07:56:06;18.50;;;8.45;;
64609;SDS011;51019;46.090;6.350;2023-04-19T07:58:34;20.67;;;8.25;;
64609;SDS011;51019;46.090;6.350;2023-04-19T08:01:03;18.67;;;9.18;;
64609;SDS011;51019;46.090;6.350;2023-04-19T08:03:32;18.88;;;8.60;;
64609;SDS011;51019;46.090;6.350;2023-04-19T08:06:00;20.08;;;9.07;;
64609;SDS011;51019;46.090;6.350;2023-04-19T08:08:29;19.13;;;8.48;;
64609;SDS011;51019;46.090;6.350;2023-04-19T08:10:57;18.92;;;8.45;;
64609;SDS011;51019;46.090;6.350;2023-04-19T08:13:26;18.80;;;8.40;;
64609;SDS011;51019;46.090;6.350;2023-04-19T08:15:53;18.83;;;9.10;;
64609;SDS011;51019;46.090;6.350;2023-04-19T08:18:22;18.25;;;8.48;;
64609;SDS011;51019;46.090;6.350;2023-04-19T08:20:50;18.30;;;8.55;;
64609;SDS011;51019;46.090;6.350;2023-04-19T08:23:17;17.13;;;8.32;;
64609;SDS011;51019;46.090;6.350;2023-04-19T08:25:45;19.92;;;8.55;;
64609;SDS011;51019;46.090;6.350;2023-04-19T08:28:13;17.77;;;8.55;;
64609;SDS011;51019;46.090;6.350;2023-04-19T08:30:40;20.45;;;8.10;;
64609;SDS011;51019;46.090;6.350;2023-04-19T08:33:07;18.33;;;8.23;;
64609;SDS011;51019;46.090;6.350;2023-04-19T08:35:38;21.08;;;9.27;;
64609;SDS011;51019;46.090;6.350;2023-04-19T08:38:05;24.90;;;9.27;;
64609;SDS011;51019;46.090;6.350;2023-04-19T08:40:33;20.75;;;9.43;;
64609;SDS011;51019;46.090;6.350;2023-04-19T08:43:04;20.42;;;8.93;;
64609;SDS011;51019;46.090;6.350;2023-04-19T08:45:31;21.58;;;9.40;;
64609;SDS011;51019;46.090;6.350;2023-04-19T08:48:00;22.15;;;10.20;;
64609;SDS011;51019;46.090;6.350;2023-04-19T08:50:28;20.77;;;9.38;;
64609;SDS011;51019;46.090;6.350;2023-04-19T08:52:59;19.27;;;9.38;;
64609;SDS011;51019;46.090;6.350;2023-04-19T08:55:26;19.73;;;9.20;;
64609;SDS011;51019;46.090;6.350;2023-04-19T08:57:55;19.77;;;9.32;;
64609;SDS011;51019;46.090;6.350;2023-04-19T09:00:23;22.92;;;9.55;;
64609;SDS011;51019;46.090;6.350;2023-04-19T09:02:51;18.65;;;9.02;;
64609;SDS011;51019;46.090;6.350;2023-04-19T09:05:20;19.23;;;9.65;;
64609;SDS011;51019;46.090;6.350;2023-04-19T09:07:48;20.40;;;9.02;;
64609;SDS011;51019;46.090;6.350;2023-04-19T09:10:18;19.63;;;9.50;;
64609;SDS011;51019;46.090;6.350;2023-04-19T09:12:59;19.05;;;9.10;;
64609;SDS011;51019;46.090;6.350;2023-04-19T09:15:34;17.90;;;8.93;;
64609;SDS011;51019;46.090;6.350;2023-04-19T09:18:04;17.80;;;7.90;;
64609;SDS011;51019;46.090;6.350;2023-04-19T09:20:36;18.35;;;7.85;;
64609;SDS011;51019;46.090;6.350;2023-04-19T09:23:05;16.50;;;7.88;;
64609;SDS011;51019;46.090;6.350;2023-04-19T09:25:38;16.48;;;7.03;;
64609;SDS011;51019;46.090;6.350;2023-04-19T09:28:08;19.77;;;8.52;;
64609;SDS011;51019;46.090;6.350;2023-04-19T09:30:37;17.55;;;8.55;;
64609;SDS011;51019;46.090;6.350;2023-04-19T09:33:04;20.05;;;9.15;;
64609;SDS011;51019;46.090;6.350;2023-04-19T09:35:38;17.15;;;8.35;;
64609;SDS011;51019;46.090;6.350;2023-04-19T09:38:06;18.42;;;8.65;;
64609;SDS011;51019;46.090;6.350;2023-04-19T09:40:34;19.35;;;8.60;;
64609;SDS011;51019;46.090;6.350;2023-04-19T09:43:03;18.05;;;8.40;;
64609;SDS011;51019;46.090;6.350;2023-04-19T09:45:40;19.55;;;8.52;;
64609;SDS011;51019;46.090;6.350;2023-04-19T09:48:09;18.23;;;8.25;;
64609;SDS011;51019;46.090;6.350;2023-04-19T09:50:49;19.27;;;9.25;;
64609;SDS011;51019;46.090;6.350;2023-04-19T09:53:17;19.17;;;8.85;;
64609;SDS011;51019;46.090;6.350;2023-04-19T09:55:45;17.00;;;7.78;;
64609;SDS011;51019;46.090;6.350;2023-04-19T09:58:14;17.85;;;8.10;;
64609;SDS011;51019;46.090;6.350;2023-04-19T10:00:43;18.52;;;8.52;;
64609;SDS011;51019;46.090;6.350;2023-04-19T10:03:12;19.00;;;8.40;;
64609;SDS011;51019;46.090;6.350;2023-04-19T10:05:41;17.33;;;8.18;;
64609;SDS011;51019;46.090;6.350;2023-04-19T10:08:10;16.98;;;7.88;;
64609;SDS011;51019;46.090;6.350;2023-04-19T10:10:38;16.63;;;7.50;;
64609;SDS011;51019;46.090;6.350;2023-04-19T10:13:06;18.55;;;8.57;;
64609;SDS011;51019;46.090;6.350;2023-04-19T10:15:40;23.42;;;8.48;;
64609;SDS011;51019;46.090;6.350;2023-04-19T10:18:09;19.88;;;7.72;;
64609;SDS011;51019;46.090;6.350;2023-04-19T10:20:38;17.35;;;7.57;;
64609;SDS011;51019;46.090;6.350;2023-04-19T10:23:13;19.05;;;8.32;;
64609;SDS011;51019;46.090;6.350;2023-04-19T10:25:44;16.70;;;8.02;;
64609;SDS011;51019;46.090;6.350;2023-04-19T10:28:14;17.63;;;7.23;;
64609;SDS011;51019;46.090;6.350;2023-04-19T10:30:53;18.17;;;7.97;;
64609;SDS011;51019;46.090;6.350;2023-04-19T10:33:24;18.02;;;8.27;;
64609;SDS011;51019;46.090;6.350;2023-04-19T10:35:54;16.95;;;7.88;;
64609;SDS011;51019;46.090;6.350;2023-04-19T10:38:36;19.38;;;7.47;;
64609;SDS011;51019;46.090;6.350;2023-04-19T10:41:05;18.65;;;8.88;;
64609;SDS011;51019;46.090;6.350;2023-04-19T10:43:38;17.63;;;8.27;;
64609;SDS011;51019;46.090;6.350;2023-04-19T10:46:09;17.23;;;7.60;;
64609;SDS011;51019;46.090;6.350;2023-04-19T10:48:42;19.23;;;8.20;;
64609;SDS011;51019;46.090;6.350;2023-04-19T10:51:18;17.67;;;7.40;;
64609;SDS011;51019;46.090;6.350;2023-04-19T10:53:57;16.38;;;7.55;;
64609;SDS011;51019;46.090;6.350;2023-04-19T10:59:29;15.20;;;6.63;;
64609;SDS011;51019;46.090;6.350;2023-04-19T11:02:00;15.85;;;7.13;;
64609;SDS011;51019;46.090;6.350;2023-04-19T11:07:24;16.48;;;7.38;;
64609;SDS011;51019;46.090;6.350;2023-04-19T11:09:52;18.40;;;7.25;;
64609;SDS011;51019;46.090;6.350;2023-04-19T11:12:19;15.15;;;7.40;;
64609;SDS011;51019;46.090;6.350;2023-04-19T11:14:49;14.73;;;6.43;;
64609;SDS011;51019;46.090;6.350;2023-04-19T11:17:19;16.52;;;7.47;;
64609;SDS011;51019;46.090;6.350;2023-04-19T11:19:52;15.65;;;6.38;;
64609;SDS011;51019;46.090;6.350;2023-04-19T11:22:24;14.75;;;6.28;;
64609;SDS011;51019;46.090;6.350;2023-04-19T11:24:56;15.45;;;7.03;;
64609;SDS011;51019;46.090;6.350;2023-04-19T11:27:23;15.18;;;6.60;;
64609;SDS011;51019;46.090;6.350;2023-04-19T11:29:50;16.95;;;7.68;;
64609;SDS011;51019;46.090;6.350;2023-04-19T11:32:21;15.48;;;7.22;;
64609;SDS011;51019;46.090;6.350;2023-04-19T11:34:49;15.90;;;7.30;;
64609;SDS011;51019;46.090;6.350;2023-04-19T11:37:16;15.82;;;6.95;;
64609;SDS011;51019;46.090;6.350;2023-04-19T11:39:44;15.45;;;6.82;;
64609;SDS011;51019;46.090;6.350;2023-04-19T11:42:16;17.38;;;7.63;;
64609;SDS011;51019;46.090;6.350;2023-04-19T11:44:48;18.13;;;7.22;;
64609;SDS011;51019;46.090;6.350;2023-04-19T11:47:17;19.75;;;8.05;;
64609;SDS011;51019;46.090;6.350;2023-04-19T11:49:47;16.58;;;8.00;;
64609;SDS011;51019;46.090;6.350;2023-04-19T11:52:19;16.95;;;7.70;;
64609;SDS011;51019;46.090;6.350;2023-04-19T11:54:47;15.18;;;7.22;;
64609;SDS011;51019;46.090;6.350;2023-04-19T11:57:14;16.08;;;7.65;;
64609;SDS011;51019;46.090;6.350;2023-04-19T12:00:00;20.23;;;8.32;;
64609;SDS011;51019;46.090;6.350;2023-04-19T12:02:36;16.17;;;8.45;;
64609;SDS011;51019;46.090;6.350;2023-04-19T12:05:10;16.48;;;7.00;;
64609;SDS011;51019;46.090;6.350;2023-04-19T12:10:25;20.27;;;8.05;;
64609;SDS011;51019;46.090;6.350;2023-04-19T12:12:52;16.33;;;7.93;;
64609;SDS011;51019;46.090;6.350;2023-04-19T12:15:20;18.10;;;8.00;;
64609;SDS011;51019;46.090;6.350;2023-04-19T12:17:54;17.27;;;7.53;;
64609;SDS011;51019;46.090;6.350;2023-04-19T12:20:31;17.25;;;8.30;;
64609;SDS011;51019;46.090;6.350;2023-04-19T12:23:00;17.48;;;7.97;;
64609;SDS011;51019;46.090;6.350;2023-04-19T12:25:28;17.98;;;7.85;;
64609;SDS011;51019;46.090;6.350;2023-04-19T12:27:57;17.85;;;7.28;;
64609;SDS011;51019;46.090;6.350;2023-04-19T12:30:25;16.88;;;7.60;;
64609;SDS011;51019;46.090;6.350;2023-04-19T12:32:53;17.35;;;8.38;;
64609;SDS011;51019;46.090;6.350;2023-04-19T12:35:20;15.95;;;7.80;;
64609;SDS011;51019;46.090;6.350;2023-04-19T12:37:51;16.10;;;7.20;;
64609;SDS011;51019;46.090;6.350;2023-04-19T12:40:18;17.92;;;8.20;;
64609;SDS011;51019;46.090;6.350;2023-04-19T12:42:46;15.82;;;7.32;;
64609;SDS011;51019;46.090;6.350;2023-04-19T12:45:14;15.32;;;7.82;;
64609;SDS011;51019;46.090;6.350;2023-04-19T12:47:42;16.30;;;7.57;;
64609;SDS011;51019;46.090;6.350;2023-04-19T12:50:11;17.65;;;8.32;;
64609;SDS011;51019;46.090;6.350;2023-04-19T12:52:39;17.02;;;7.72;;
64609;SDS011;51019;46.090;6.350;2023-04-19T12:55:09;17.00;;;7.25;;
64609;SDS011;51019;46.090;6.350;2023-04-19T12:57:36;16.60;;;7.75;;
64609;SDS011;51019;46.090;6.350;2023-04-19T13:00:04;17.60;;;8.10;;
64609;SDS011;51019;46.090;6.350;2023-04-19T13:02:34;16.83;;;7.93;;
64609;SDS011;51019;46.090;6.350;2023-04-19T13:05:01;16.33;;;7.20;;
64609;SDS011;51019;46.090;6.350;2023-04-19T13:07:29;17.55;;;7.57;;
64609;SDS011;51019;46.090;6.350;2023-04-19T13:09:57;16.52;;;8.07;;
64609;SDS011;51019;46.090;6.350;2023-04-19T13:12:27;16.42;;;7.25;;
64609;SDS011;51019;46.090;6.350;2023-04-19T13:14:54;16.83;;;7.43;;
64609;SDS011;51019;46.090;6.350;2023-04-19T13:17:21;18.17;;;8.52;;
64609;SDS011;51019;46.090;6.350;2023-04-19T13:19:49;15.68;;;7.13;;
64609;SDS011;51019;46.090;6.350;2023-04-19T13:22:16;16.20;;;7.75;;
64609;SDS011;51019;46.090;6.350;2023-04-19T13:24:43;15.27;;;7.15;;
64609;SDS011;51019;46.090;6.350;2023-04-19T13:27:11;16.95;;;7.72;;
64609;SDS011;51019;46.090;6.350;2023-04-19T13:29:40;16.13;;;7.10;;
64609;SDS011;51019;46.090;6.350;2023-04-19T13:32:07;16.65;;;7.43;;
64609;SDS011;51019;46.090;6.350;2023-04-19T13:34:36;16.23;;;7.55;;
64609;SDS011;51019;46.090;6.350;2023-04-19T13:37:05;17.25;;;8.05;;
64609;SDS011;51019;46.090;6.350;2023-04-19T13:39:32;16.75;;;8.25;;
64609;SDS011;51019;46.090;6.350;2023-04-19T13:42:00;17.40;;;7.60;;
64609;SDS011;51019;46.090;6.350;2023-04-19T13:44:27;17.38;;;8.18;;
64609;SDS011;51019;46.090;6.350;2023-04-19T13:46:56;15.57;;;8.15;;
64609;SDS011;51019;46.090;6.350;2023-04-19T13:49:24;15.65;;;6.97;;
64609;SDS011;51019;46.090;6.350;2023-04-19T13:51:51;18.33;;;7.78;;
64609;SDS011;51019;46.090;6.350;2023-04-19T13:54:19;14.45;;;6.88;;
64609;SDS011;51019;46.090;6.350;2023-04-19T13:56:46;16.10;;;6.47;;
64609;SDS011;51019;46.090;6.350;2023-04-19T13:59:14;16.10;;;7.47;;
64609;SDS011;51019;46.090;6.350;2023-04-19T14:01:41;16.48;;;6.90;;
64609;SDS011;51019;46.090;6.350;2023-04-19T14:04:11;16.95;;;6.45;;
64609;SDS011;51019;46.090;6.350;2023-04-19T14:06:38;14.90;;;6.28;;
64609;SDS011;51019;46.090;6.350;2023-04-19T14:09:06;16.48;;;6.55;;
64609;SDS011;51019;46.090;6.350;2023-04-19T14:11:33;14.95;;;6.18;;
64609;SDS011;51019;46.090;6.350;2023-04-19T14:14:02;14.52;;;5.88;;
64609;SDS011;51019;46.090;6.350;2023-04-19T14:16:29;15.15;;;5.97;;
64609;SDS011;51019;46.090;6.350;2023-04-19T14:18:57;15.05;;;6.35;;
64609;SDS011;51019;46.090;6.350;2023-04-19T14:21:27;15.13;;;5.90;;
64609;SDS011;51019;46.090;6.350;2023-04-19T14:23:54;13.98;;;6.15;;
64609;SDS011;51019;46.090;6.350;2023-04-19T14:26:21;13.13;;;5.57;;
64609;SDS011;51019;46.090;6.350;2023-04-19T14:28:49;13.48;;;5.68;;
64609;SDS011;51019;46.090;6.350;2023-04-19T14:31:16;12.90;;;5.30;;
64609;SDS011;51019;46.090;6.350;2023-04-19T14:33:44;13.25;;;5.18;;
64609;SDS011;51019;46.090;6.350;2023-04-19T14:36:11;13.43;;;5.60;;
64609;SDS011;51019;46.090;6.350;2023-04-19T14:38:40;13.13;;;5.53;;
64609;SDS011;51019;46.090;6.350;2023-04-19T14:41:08;19.30;;;5.60;;
64609;SDS011;51019;46.090;6.350;2023-04-19T14:43:36;13.70;;;5.85;;
64609;SDS011;51019;46.090;6.350;2023-04-19T14:46:03;13.70;;;5.82;;
64609;SDS011;51019;46.090;6.350;2023-04-19T14:48:33;12.93;;;5.65;;
64609;SDS011;51019;46.090;6.350;2023-04-19T14:51:00;18.13;;;6.43;;